Carson, Virginia
Current Conditions -  °F | °C
As of 5:15 PM on Thursday 23 Oct 2014 (Local Time) from KPTB Reporting Station
Clear Clear  
Wind Chill: 67°   Ceiling: Unl
Heat Index: 67°   Visibility: 10mi
Dew Point: 42°   Wind: 8mph
Humidity: 41%   Direction: 310°NW
Pressure: 29.89"   Gusts: NA
Location:  37.04°N, 77.4°W
Report Text: KPTB 232115Z AUTO 31007KT 10SM CLR 19/06 A2989 RMK AO2 T01930057
Loading
Personal Weather Stations






























Interactive Weather Map
Tropical Storm Tracking
New forecast layout! Learn more

10-Day Weather Forecast

Advertisements
Track Severe Weather on mobile